sensor_id;sensor_type;location;lat;lon;timestamp;temperature;humidity
4183;DHT22;2105;52.300;9.182;2022-09-04T00:00:41;15.90;99.90
4183;DHT22;2105;52.300;9.182;2022-09-04T00:03:21;15.80;99.90
4183;DHT22;2105;52.300;9.182;2022-09-04T00:05:53;15.80;99.90
4183;DHT22;2105;52.300;9.182;2022-09-04T00:08:30;15.60;99.90
4183;DHT22;2105;52.300;9.182;2022-09-04T00:11:02;15.40;99.90
4183;DHT22;2105;52.300;9.182;2022-09-04T00:13:33;15.30;99.90
4183;DHT22;2105;52.300;9.182;2022-09-04T00:16:05;15.10;99.90
4183;DHT22;2105;52.300;9.182;2022-09-04T00:18:36;15.10;1.00
4183;DHT22;2105;52.300;9.182;2022-09-04T00:21:11;15.10;1.00
4183;DHT22;2105;52.300;9.182;2022-09-04T00:23:47;15.10;1.00
4183;DHT22;2105;52.300;9.182;2022-09-04T00:26:24;15.10;1.00
4183;DHT22;2105;52.300;9.182;2022-09-04T00:28:55;15.10;1.00
4183;DHT22;2105;52.300;9.182;2022-09-04T00:31:29;15.10;1.00
4183;DHT22;2105;52.300;9.182;2022-09-04T00:34:05;15.10;1.00
4183;DHT22;2105;52.300;9.182;2022-09-04T00:36:38;15.00;1.00
4183;DHT22;2105;52.300;9.182;2022-09-04T00:39:10;14.90;1.00
4183;DHT22;2105;52.300;9.182;2022-09-04T00:41:44;14.80;1.00
4183;DHT22;2105;52.300;9.182;2022-09-04T00:44:29;14.80;1.00
4183;DHT22;2105;52.300;9.182;2022-09-04T00:47:08;14.70;1.00
4183;DHT22;2105;52.300;9.182;2022-09-04T00:49:54;14.70;1.00
4183;DHT22;2105;52.300;9.182;2022-09-04T00:52:36;14.60;1.00
4183;DHT22;2105;52.300;9.182;2022-09-04T00:55:27;14.60;1.00
4183;DHT22;2105;52.300;9.182;2022-09-04T00:58:12;14.60;1.00
4183;DHT22;2105;52.300;9.182;2022-09-04T01:00:43;14.50;1.00
4183;DHT22;2105;52.300;9.182;2022-09-04T01:03:29;14.50;1.00
4183;DHT22;2105;52.300;9.182;2022-09-04T01:06:15;14.50;1.00
4183;DHT22;2105;52.300;9.182;2022-09-04T01:09:02;14.60;1.00
4183;DHT22;2105;52.300;9.182;2022-09-04T01:11:39;14.60;1.00
4183;DHT22;2105;52.300;9.182;2022-09-04T01:14:11;14.50;1.00
4183;DHT22;2105;52.300;9.182;2022-09-04T01:16:45;14.40;51.80
4183;DHT22;2105;52.300;9.182;2022-09-04T01:19:23;14.40;96.00
4183;DHT22;2105;52.300;9.182;2022-09-04T01:22:06;14.50;40.80
4183;DHT22;2105;52.300;9.182;2022-09-04T01:24:53;14.50;1.00
4183;DHT22;2105;52.300;9.182;2022-09-04T01:27:26;14.30;36.70
4183;DHT22;2105;52.300;9.182;2022-09-04T01:29:58;14.10;72.90
4183;DHT22;2105;52.300;9.182;2022-09-04T01:32:34;14.00;99.90
4183;DHT22;2105;52.300;9.182;2022-09-04T01:35:13;14.00;99.90
4183;DHT22;2105;52.300;9.182;2022-09-04T01:37:54;14.00;99.90
4183;DHT22;2105;52.300;9.182;2022-09-04T01:40:29;13.90;99.90
4183;DHT22;2105;52.300;9.182;2022-09-04T01:43:03;13.60;99.90
4183;DHT22;2105;52.300;9.182;2022-09-04T01:45:42;13.40;99.90
4183;DHT22;2105;52.300;9.182;2022-09-04T01:48:15;13.20;1.00
4183;DHT22;2105;52.300;9.182;2022-09-04T01:50:44;13.10;1.00
4183;DHT22;2105;52.300;9.182;2022-09-04T01:53:17;13.00;1.00
4183;DHT22;2105;52.300;9.182;2022-09-04T01:55:53;13.00;1.00
4183;DHT22;2105;52.300;9.182;2022-09-04T01:58:28;13.00;1.00
4183;DHT22;2105;52.300;9.182;2022-09-04T02:01:06;13.00;1.00
4183;DHT22;2105;52.300;9.182;2022-09-04T02:03:42;13.00;1.00
4183;DHT22;2105;52.300;9.182;2022-09-04T02:06:18;13.00;1.00
4183;DHT22;2105;52.300;9.182;2022-09-04T02:08:59;13.00;1.00
4183;DHT22;2105;52.300;9.182;2022-09-04T02:11:36;13.10;1.00
4183;DHT22;2105;52.300;9.182;2022-09-04T02:14:14;13.10;1.00
4183;DHT22;2105;52.300;9.182;2022-09-04T02:16:49;13.00;1.00
4183;DHT22;2105;52.300;9.182;2022-09-04T02:19:30;12.90;1.00
4183;DHT22;2105;52.300;9.182;2022-09-04T02:22:05;12.90;1.00
4183;DHT22;2105;52.300;9.182;2022-09-04T02:24:36;12.90;1.00
4183;DHT22;2105;52.300;9.182;2022-09-04T02:27:08;13.00;1.00
4183;DHT22;2105;52.300;9.182;2022-09-04T02:29:42;13.10;1.00
4183;DHT22;2105;52.300;9.182;2022-09-04T02:32:14;13.10;1.00
4183;DHT22;2105;52.300;9.182;2022-09-04T02:34:48;13.10;1.00
4183;DHT22;2105;52.300;9.182;2022-09-04T02:37:24;13.10;1.00
4183;DHT22;2105;52.300;9.182;2022-09-04T02:39:59;13.10;1.00
4183;DHT22;2105;52.300;9.182;2022-09-04T02:42:30;13.10;1.00
4183;DHT22;2105;52.300;9.182;2022-09-04T02:45:09;13.10;1.00
4183;DHT22;2105;52.300;9.182;2022-09-04T02:47:49;13.10;1.00
4183;DHT22;2105;52.300;9.182;2022-09-04T02:50:28;13.20;1.00
4183;DHT22;2105;52.300;9.182;2022-09-04T02:53:06;13.20;1.00
4183;DHT22;2105;52.300;9.182;2022-09-04T02:55:51;13.20;1.00
4183;DHT22;2105;52.300;9.182;2022-09-04T02:58:30;13.20;1.00
4183;DHT22;2105;52.300;9.182;2022-09-04T03:01:05;13.30;1.00
4183;DHT22;2105;52.300;9.182;2022-09-04T03:03:39;13.30;1.00
4183;DHT22;2105;52.300;9.182;2022-09-04T03:06:09;13.30;1.00
4183;DHT22;2105;52.300;9.182;2022-09-04T03:08:43;13.20;1.00
4183;DHT22;2105;52.300;9.182;2022-09-04T03:11:16;13.10;1.00
4183;DHT22;2105;52.300;9.182;2022-09-04T03:13:49;13.10;49.30
4183;DHT22;2105;52.300;9.182;2022-09-04T03:16:24;13.10;1.00
4183;DHT22;2105;52.300;9.182;2022-09-04T03:19:00;13.00;43.70
4183;DHT22;2105;52.300;9.182;2022-09-04T03:21:33;12.90;99.90
4183;DHT22;2105;52.300;9.182;2022-09-04T03:24:04;12.90;99.90
4183;DHT22;2105;52.300;9.182;2022-09-04T03:26:34;12.80;99.90
4183;DHT22;2105;52.300;9.182;2022-09-04T03:29:06;12.80;99.90
4183;DHT22;2105;52.300;9.182;2022-09-04T03:31:44;12.70;99.90
4183;DHT22;2105;52.300;9.182;2022-09-04T03:34:19;12.70;99.90
4183;DHT22;2105;52.300;9.182;2022-09-04T03:37:04;12.50;99.90
4183;DHT22;2105;52.300;9.182;2022-09-04T03:39:38;12.40;1.00
4183;DHT22;2105;52.300;9.182;2022-09-04T03:42:12;12.20;1.00
4183;DHT22;2105;52.300;9.182;2022-09-04T03:44:48;12.20;1.00
4183;DHT22;2105;52.300;9.182;2022-09-04T03:47:25;12.30;1.00
4183;DHT22;2105;52.300;9.182;2022-09-04T03:50:05;12.30;1.00
4183;DHT22;2105;52.300;9.182;2022-09-04T03:52:47;12.30;1.00
4183;DHT22;2105;52.300;9.182;2022-09-04T03:55:51;12.40;1.00
4183;DHT22;2105;52.300;9.182;2022-09-04T03:58:26;12.40;1.00
4183;DHT22;2105;52.300;9.182;2022-09-04T04:01:07;12.40;1.00
4183;DHT22;2105;52.300;9.182;2022-09-04T04:04:01;12.20;1.00
4183;DHT22;2105;52.300;9.182;2022-09-04T04:06:38;12.10;1.00
4183;DHT22;2105;52.300;9.182;2022-09-04T04:09:23;12.10;1.00
4183;DHT22;2105;52.300;9.182;2022-09-04T04:12:14;12.00;1.00
4183;DHT22;2105;52.300;9.182;2022-09-04T04:15:04;12.00;54.70
4183;DHT22;2105;52.300;9.182;2022-09-04T04:17:53;11.90;99.90
4183;DHT22;2105;52.300;9.182;2022-09-04T04:20:34;11.80;99.90
4183;DHT22;2105;52.300;9.182;2022-09-04T04:26:06;11.80;99.90
4183;DHT22;2105;52.300;9.182;2022-09-04T04:28:53;11.90;1.00
4183;DHT22;2105;52.300;9.182;2022-09-04T04:31:39;11.90;1.00
4183;DHT22;2105;52.300;9.182;2022-09-04T04:34:17;12.00;99.90
4183;DHT22;2105;52.300;9.182;2022-09-04T04:36:54;12.00;99.90
4183;DHT22;2105;52.300;9.182;2022-09-04T04:39:27;12.10;99.90
4183;DHT22;2105;52.300;9.182;2022-09-04T04:42:07;12.10;99.90
4183;DHT22;2105;52.300;9.182;2022-09-04T04:44:48;12.10;99.90
4183;DHT22;2105;52.300;9.182;2022-09-04T04:48:19;12.10;57.00
4183;DHT22;2105;52.300;9.182;2022-09-04T04:50:53;12.10;1.00
4183;DHT22;2105;52.300;9.182;2022-09-04T04:53:32;12.10;61.70
4183;DHT22;2105;52.300;9.182;2022-09-04T04:56:05;12.20;99.90
4183;DHT22;2105;52.300;9.182;2022-09-04T04:58:51;12.20;1.00
4183;DHT22;2105;52.300;9.182;2022-09-04T05:01:37;12.10;1.00
4183;DHT22;2105;52.300;9.182;2022-09-04T05:04:12;12.10;5.10
4183;DHT22;2105;52.300;9.182;2022-09-04T05:06:48;12.10;99.90
4183;DHT22;2105;52.300;9.182;2022-09-04T05:09:27;12.00;99.90
4183;DHT22;2105;52.300;9.182;2022-09-04T05:12:02;11.90;99.90
4183;DHT22;2105;52.300;9.182;2022-09-04T05:14:40;12.00;99.90
4183;DHT22;2105;52.300;9.182;2022-09-04T05:17:18;12.10;99.90
4183;DHT22;2105;52.300;9.182;2022-09-04T05:19:52;12.20;99.90
4183;DHT22;2105;52.300;9.182;2022-09-04T05:22:29;12.40;99.90
4183;DHT22;2105;52.300;9.182;2022-09-04T05:25:06;12.50;29.40
4183;DHT22;2105;52.300;9.182;2022-09-04T05:27:43;12.50;1.00
4183;DHT22;2105;52.300;9.182;2022-09-04T05:30:17;12.50;6.70
4183;DHT22;2105;52.300;9.182;2022-09-04T05:32:54;12.50;99.90
4183;DHT22;2105;52.300;9.182;2022-09-04T05:35:25;12.60;99.90
4183;DHT22;2105;52.300;9.182;2022-09-04T05:38:01;12.60;99.90
4183;DHT22;2105;52.300;9.182;2022-09-04T05:40:37;12.60;99.90
4183;DHT22;2105;52.300;9.182;2022-09-04T05:43:19;12.60;99.90
4183;DHT22;2105;52.300;9.182;2022-09-04T05:45:56;12.80;99.90
4183;DHT22;2105;52.300;9.182;2022-09-04T05:48:32;12.90;60.10
4183;DHT22;2105;52.300;9.182;2022-09-04T05:51:06;13.20;1.00
4183;DHT22;2105;52.300;9.182;2022-09-04T05:53:46;13.30;1.00
4183;DHT22;2105;52.300;9.182;2022-09-04T05:56:44;13.40;1.00
4183;DHT22;2105;52.300;9.182;2022-09-04T05:59:38;13.60;1.00
4183;DHT22;2105;52.300;9.182;2022-09-04T06:02:20;13.70;99.90
4183;DHT22;2105;52.300;9.182;2022-09-04T06:05:02;13.80;1.00
4183;DHT22;2105;52.300;9.182;2022-09-04T06:07:37;13.90;99.90
4183;DHT22;2105;52.300;9.182;2022-09-04T06:10:15;14.10;99.90
4183;DHT22;2105;52.300;9.182;2022-09-04T06:12:59;14.20;99.90
4183;DHT22;2105;52.300;9.182;2022-09-04T06:15:42;14.30;99.90
4183;DHT22;2105;52.300;9.182;2022-09-04T06:18:26;14.50;99.90
4183;DHT22;2105;52.300;9.182;2022-09-04T06:21:17;14.60;30.70
4183;DHT22;2105;52.300;9.182;2022-09-04T06:23:58;14.80;1.00
4183;DHT22;2105;52.300;9.182;2022-09-04T06:29:58;15.00;1.00
4183;DHT22;2105;52.300;9.182;2022-09-04T06:35:30;15.30;1.00
4183;DHT22;2105;52.300;9.182;2022-09-04T06:38:17;15.50;1.00
4183;DHT22;2105;52.300;9.182;2022-09-04T06:40:55;15.70;1.00
4183;DHT22;2105;52.300;9.182;2022-09-04T06:43:28;15.80;99.90
4183;DHT22;2105;52.300;9.182;2022-09-04T06:46:08;15.90;99.90
4183;DHT22;2105;52.300;9.182;2022-09-04T06:48:49;16.00;99.90
4183;DHT22;2105;52.300;9.182;2022-09-04T06:51:27;16.20;99.90
4183;DHT22;2105;52.300;9.182;2022-09-04T06:54:15;16.40;99.90
4183;DHT22;2105;52.300;9.182;2022-09-04T06:57:12;16.60;99.90
4183;DHT22;2105;52.300;9.182;2022-09-04T07:00:00;16.80;99.90
4183;DHT22;2105;52.300;9.182;2022-09-04T07:05:28;17.20;39.50
4183;DHT22;2105;52.300;9.182;2022-09-04T07:08:06;17.30;1.00
4183;DHT22;2105;52.300;9.182;2022-09-04T07:10:40;17.50;1.90
4183;DHT22;2105;52.300;9.182;2022-09-04T07:13:24;17.60;1.00
4183;DHT22;2105;52.300;9.182;2022-09-04T07:16:14;17.90;1.00
4183;DHT22;2105;52.300;9.182;2022-09-04T07:19:00;18.00;1.00
4183;DHT22;2105;52.300;9.182;2022-09-04T07:21:42;18.10;1.00
4183;DHT22;2105;52.300;9.182;2022-09-04T07:24:35;18.20;1.00
4183;DHT22;2105;52.300;9.182;2022-09-04T07:27:08;18.40;1.00
4183;DHT22;2105;52.300;9.182;2022-09-04T07:29:39;19.00;1.00
4183;DHT22;2105;52.300;9.182;2022-09-04T07:32:10;19.60;1.00
4183;DHT22;2105;52.300;9.182;2022-09-04T07:34:51;21.00;99.90
4183;DHT22;2105;52.300;9.182;2022-09-04T07:37:25;22.40;99.90
4183;DHT22;2105;52.300;9.182;2022-09-04T07:40:00;23.80;38.40
4183;DHT22;2105;52.300;9.182;2022-09-04T07:42:36;24.70;1.00
4183;DHT22;2105;52.300;9.182;2022-09-04T07:45:06;25.50;1.00
4183;DHT22;2105;52.300;9.182;2022-09-04T07:47:37;26.40;1.00
4183;DHT22;2105;52.300;9.182;2022-09-04T07:50:12;27.10;1.00
4183;DHT22;2105;52.300;9.182;2022-09-04T07:52:50;26.20;1.00
4183;DHT22;2105;52.300;9.182;2022-09-04T07:55:26;25.90;1.00
4183;DHT22;2105;52.300;9.182;2022-09-04T07:58:26;25.30;1.00
4183;DHT22;2105;52.300;9.182;2022-09-04T08:01:12;24.90;1.00
4183;DHT22;2105;52.300;9.182;2022-09-04T08:03:57;24.70;1.00
4183;DHT22;2105;52.300;9.182;2022-09-04T08:06:34;24.50;1.00
4183;DHT22;2105;52.300;9.182;2022-09-04T08:09:23;24.70;1.00
4183;DHT22;2105;52.300;9.182;2022-09-04T08:12:12;24.70;1.00
4183;DHT22;2105;52.300;9.182;2022-09-04T08:14:52;24.40;1.00
4183;DHT22;2105;52.300;9.182;2022-09-04T08:20:41;23.80;1.00
4183;DHT22;2105;52.300;9.182;2022-09-04T08:23:29;23.60;1.00
4183;DHT22;2105;52.300;9.182;2022-09-04T08:26:07;23.50;1.00
4183;DHT22;2105;52.300;9.182;2022-09-04T08:28:58;23.40;1.00
4183;DHT22;2105;52.300;9.182;2022-09-04T08:31:29;23.30;1.00
4183;DHT22;2105;52.300;9.182;2022-09-04T08:34:06;23.20;1.00
4183;DHT22;2105;52.300;9.182;2022-09-04T08:36:42;23.10;1.00
4183;DHT22;2105;52.300;9.182;2022-09-04T08:39:19;23.10;1.00
4183;DHT22;2105;52.300;9.182;2022-09-04T08:42:12;23.00;1.00
4183;DHT22;2105;52.300;9.182;2022-09-04T08:45:31;22.90;1.00
4183;DHT22;2105;52.300;9.182;2022-09-04T08:48:25;23.00;1.00
4183;DHT22;2105;52.300;9.182;2022-09-04T08:51:30;23.00;1.00
4183;DHT22;2105;52.300;9.182;2022-09-04T08:54:43;23.30;1.00
4183;DHT22;2105;52.300;9.182;2022-09-04T08:57:50;23.60;1.00
4183;DHT22;2105;52.300;9.182;2022-09-04T09:00:26;23.70;1.00
4183;DHT22;2105;52.300;9.182;2022-09-04T09:03:29;23.90;1.00
4183;DHT22;2105;52.300;9.182;2022-09-04T09:06:30;24.00;1.00
4183;DHT22;2105;52.300;9.182;2022-09-04T09:15:32;24.10;1.00
4183;DHT22;2105;52.300;9.182;2022-09-04T09:21:05;24.30;1.00
4183;DHT22;2105;52.300;9.182;2022-09-04T09:23:38;24.40;1.00
4183;DHT22;2105;52.300;9.182;2022-09-04T09:26:23;24.40;1.00
4183;DHT22;2105;52.300;9.182;2022-09-04T09:29:27;24.40;1.00
4183;DHT22;2105;52.300;9.182;2022-09-04T09:32:30;24.60;1.00
4183;DHT22;2105;52.300;9.182;2022-09-04T09:38:30;24.80;1.00
4183;DHT22;2105;52.300;9.182;2022-09-04T09:41:15;25.00;1.00
4183;DHT22;2105;52.300;9.182;2022-09-04T09:44:05;25.10;1.00
4183;DHT22;2105;52.300;9.182;2022-09-04T09:47:11;25.30;1.00
4183;DHT22;2105;52.300;9.182;2022-09-04T09:50:10;25.50;1.00
4183;DHT22;2105;52.300;9.182;2022-09-04T09:52:58;25.70;1.00
4183;DHT22;2105;52.300;9.182;2022-09-04T09:58:59;25.50;1.00
4183;DHT22;2105;52.300;9.182;2022-09-04T10:01:53;25.70;1.00
4183;DHT22;2105;52.300;9.182;2022-09-04T10:04:47;25.70;1.00
4183;DHT22;2105;52.300;9.182;2022-09-04T10:07:54;25.80;1.00
4183;DHT22;2105;52.300;9.182;2022-09-04T10:10:57;25.80;1.00
4183;DHT22;2105;52.300;9.182;2022-09-04T10:13:47;25.90;1.00
4183;DHT22;2105;52.300;9.182;2022-09-04T10:25:57;26.30;1.00
4183;DHT22;2105;52.300;9.182;2022-09-04T10:32:01;26.30;1.00
4183;DHT22;2105;52.300;9.182;2022-09-04T10:34:42;26.50;1.00
4183;DHT22;2105;52.300;9.182;2022-09-04T10:37:30;26.50;1.00
4183;DHT22;2105;52.300;9.182;2022-09-04T10:40:08;26.50;1.00
4183;DHT22;2105;52.300;9.182;2022-09-04T10:43:11;26.50;1.00
4183;DHT22;2105;52.300;9.182;2022-09-04T10:45:45;26.70;1.00
4183;DHT22;2105;52.300;9.182;2022-09-04T10:48:32;26.70;1.00
4183;DHT22;2105;52.300;9.182;2022-09-04T10:51:17;26.80;1.00
4183;DHT22;2105;52.300;9.182;2022-09-04T10:54:17;26.90;1.00
4183;DHT22;2105;52.300;9.182;2022-09-04T10:57:00;26.90;1.00
4183;DHT22;2105;52.300;9.182;2022-09-04T10:59:52;27.20;1.00
4183;DHT22;2105;52.300;9.182;2022-09-04T11:02:45;27.20;1.00
4183;DHT22;2105;52.300;9.182;2022-09-04T11:05:29;27.10;1.00
4183;DHT22;2105;52.300;9.182;2022-09-04T11:08:21;27.00;1.00
4183;DHT22;2105;52.300;9.182;2022-09-04T11:11:12;27.40;1.00
4183;DHT22;2105;52.300;9.182;2022-09-04T11:13:57;27.50;1.00
4183;DHT22;2105;52.300;9.182;2022-09-04T11:16:55;28.00;1.00
4183;DHT22;2105;52.300;9.182;2022-09-04T11:22:57;27.10;1.00
4183;DHT22;2105;52.300;9.182;2022-09-04T11:29:02;27.60;1.00
4183;DHT22;2105;52.300;9.182;2022-09-04T11:32:09;27.90;1.00
4183;DHT22;2105;52.300;9.182;2022-09-04T11:35:18;27.80;1.00
4183;DHT22;2105;52.300;9.182;2022-09-04T11:38:07;27.50;1.00
4183;DHT22;2105;52.300;9.182;2022-09-04T11:44:17;27.90;1.00
4183;DHT22;2105;52.300;9.182;2022-09-04T11:47:05;27.70;1.00
4183;DHT22;2105;52.300;9.182;2022-09-04T11:49:50;27.80;1.00
4183;DHT22;2105;52.300;9.182;2022-09-04T11:52:25;27.70;1.00
4183;DHT22;2105;52.300;9.182;2022-09-04T11:55:23;27.90;1.00
4183;DHT22;2105;52.300;9.182;2022-09-04T12:01:25;28.00;1.00
4183;DHT22;2105;52.300;9.182;2022-09-04T12:04:16;28.10;1.00
4183;DHT22;2105;52.300;9.182;2022-09-04T12:06:59;28.20;1.00
4183;DHT22;2105;52.300;9.182;2022-09-04T12:09:53;28.10;1.00
4183;DHT22;2105;52.300;9.182;2022-09-04T12:15:58;28.50;1.00
4183;DHT22;2105;52.300;9.182;2022-09-04T12:19:11;28.20;1.00
4183;DHT22;2105;52.300;9.182;2022-09-04T12:22:05;27.40;1.00
4183;DHT22;2105;52.300;9.182;2022-09-04T12:24:53;27.20;1.00
4183;DHT22;2105;52.300;9.182;2022-09-04T12:30:36;28.00;1.00
4183;DHT22;2105;52.300;9.182;2022-09-04T12:33:29;28.50;1.00
4183;DHT22;2105;52.300;9.182;2022-09-04T12:36:30;28.60;1.00
4183;DHT22;2105;52.300;9.182;2022-09-04T12:39:25;28.00;1.00
4183;DHT22;2105;52.300;9.182;2022-09-04T12:42:04;27.70;1.00
4183;DHT22;2105;52.300;9.182;2022-09-04T12:44:44;27.60;1.00
4183;DHT22;2105;52.300;9.182;2022-09-04T12:47:21;27.70;1.00
4183;DHT22;2105;52.300;9.182;2022-09-04T12:53:08;27.60;1.00
4183;DHT22;2105;52.300;9.182;2022-09-04T12:55:46;27.90;1.00
4183;DHT22;2105;52.300;9.182;2022-09-04T12:58:22;28.10;1.00
4183;DHT22;2105;52.300;9.182;2022-09-04T13:00:59;28.40;1.00
4183;DHT22;2105;52.300;9.182;2022-09-04T13:03:41;28.50;1.00
4183;DHT22;2105;52.300;9.182;2022-09-04T13:06:21;28.70;1.00
4183;DHT22;2105;52.300;9.182;2022-09-04T13:09:04;28.50;1.00
4183;DHT22;2105;52.300;9.182;2022-09-04T13:11:42;28.70;1.00
4183;DHT22;2105;52.300;9.182;2022-09-04T13:14:24;29.10;1.00
4183;DHT22;2105;52.300;9.182;2022-09-04T13:16:59;29.30;1.00
4183;DHT22;2105;52.300;9.182;2022-09-04T13:19:32;29.40;1.00
4183;DHT22;2105;52.300;9.182;2022-09-04T13:22:16;29.20;1.00
4183;DHT22;2105;52.300;9.182;2022-09-04T13:24:53;28.40;1.00
4183;DHT22;2105;52.300;9.182;2022-09-04T13:27:37;27.90;1.00
4183;DHT22;2105;52.300;9.182;2022-09-04T13:30:10;27.80;1.00
4183;DHT22;2105;52.300;9.182;2022-09-04T13:32:49;27.80;1.00
4183;DHT22;2105;52.300;9.182;2022-09-04T13:35:28;28.00;1.00
4183;DHT22;2105;52.300;9.182;2022-09-04T13:38:17;28.30;1.00
4183;DHT22;2105;52.300;9.182;2022-09-04T13:41:07;28.40;1.00
4183;DHT22;2105;52.300;9.182;2022-09-04T13:46:45;27.70;1.00
4183;DHT22;2105;52.300;9.182;2022-09-04T13:49:15;27.60;1.00
4183;DHT22;2105;52.300;9.182;2022-09-04T13:51:48;27.50;1.00
4183;DHT22;2105;52.300;9.182;2022-09-04T13:54:21;27.60;1.00
4183;DHT22;2105;52.300;9.182;2022-09-04T13:56:55;27.30;1.00
4183;DHT22;2105;52.300;9.182;2022-09-04T13:59:24;27.10;1.00
4183;DHT22;2105;52.300;9.182;2022-09-04T14:01:53;27.10;1.00
4183;DHT22;2105;52.300;9.182;2022-09-04T14:04:26;27.00;1.00
4183;DHT22;2105;52.300;9.182;2022-09-04T14:06:56;26.90;1.00
4183;DHT22;2105;52.300;9.182;2022-09-04T14:09:28;26.80;1.00
4183;DHT22;2105;52.300;9.182;2022-09-04T14:12:09;27.00;1.00
4183;DHT22;2105;52.300;9.182;2022-09-04T14:17:44;27.50;1.00
4183;DHT22;2105;52.300;9.182;2022-09-04T14:20:15;27.50;1.00
4183;DHT22;2105;52.300;9.182;2022-09-04T14:22:47;27.40;1.00
4183;DHT22;2105;52.300;9.182;2022-09-04T14:25:25;27.60;1.00
4183;DHT22;2105;52.300;9.182;2022-09-04T14:28:00;27.80;1.00
4183;DHT22;2105;52.300;9.182;2022-09-04T14:30:30;27.90;1.00
4183;DHT22;2105;52.300;9.182;2022-09-04T14:33:07;28.00;1.00
4183;DHT22;2105;52.300;9.182;2022-09-04T14:35:44;27.90;1.00
4183;DHT22;2105;52.300;9.182;2022-09-04T14:38:29;27.50;1.00
4183;DHT22;2105;52.300;9.182;2022-09-04T14:41:08;26.90;1.00
4183;DHT22;2105;52.300;9.182;2022-09-04T14:43:46;27.00;1.00
4183;DHT22;2105;52.300;9.182;2022-09-04T14:46:29;27.50;1.00
4183;DHT22;2105;52.300;9.182;2022-09-04T14:49:01;27.60;1.00
4183;DHT22;2105;52.300;9.182;2022-09-04T14:51:33;27.70;1.00
4183;DHT22;2105;52.300;9.182;2022-09-04T14:54:01;27.90;1.00
4183;DHT22;2105;52.300;9.182;2022-09-04T14:56:35;28.10;1.00
4183;DHT22;2105;52.300;9.182;2022-09-04T14:59:10;28.00;1.00
4183;DHT22;2105;52.300;9.182;2022-09-04T15:01:57;28.10;1.00
4183;DHT22;2105;52.300;9.182;2022-09-04T15:04:29;28.30;1.00
4183;DHT22;2105;52.300;9.182;2022-09-04T15:07:01;28.10;1.00
4183;DHT22;2105;52.300;9.182;2022-09-04T15:09:33;28.00;1.00
4183;DHT22;2105;52.300;9.182;2022-09-04T15:12:15;27.90;1.00
4183;DHT22;2105;52.300;9.182;2022-09-04T15:14:46;27.70;1.00
4183;DHT22;2105;52.300;9.182;2022-09-04T15:17:23;28.00;1.00
4183;DHT22;2105;52.300;9.182;2022-09-04T15:19:57;27.90;1.00
4183;DHT22;2105;52.300;9.182;2022-09-04T15:22:31;27.80;1.00
4183;DHT22;2105;52.300;9.182;2022-09-04T15:25:04;27.80;1.00
4183;DHT22;2105;52.300;9.182;2022-09-04T15:27:41;27.60;1.00
4183;DHT22;2105;52.300;9.182;2022-09-04T15:30:16;27.60;1.00
4183;DHT22;2105;52.300;9.182;2022-09-04T15:32:44;27.60;1.00
4183;DHT22;2105;52.300;9.182;2022-09-04T15:35:14;27.60;1.00
4183;DHT22;2105;52.300;9.182;2022-09-04T15:37:43;27.60;1.00
4183;DHT22;2105;52.300;9.182;2022-09-04T15:40:20;27.50;1.00
4183;DHT22;2105;52.300;9.182;2022-09-04T15:42:58;27.40;1.00
4183;DHT22;2105;52.300;9.182;2022-09-04T15:45:33;27.30;1.00
4183;DHT22;2105;52.300;9.182;2022-09-04T15:48:13;27.20;1.00
4183;DHT22;2105;52.300;9.182;2022-09-04T15:50:52;27.10;1.00
4183;DHT22;2105;52.300;9.182;2022-09-04T15:53:25;27.10;1.00
4183;DHT22;2105;52.300;9.182;2022-09-04T15:56:02;27.00;1.00
4183;DHT22;2105;52.300;9.182;2022-09-04T15:58:42;26.90;1.00
4183;DHT22;2105;52.300;9.182;2022-09-04T16:01:13;26.90;1.00
4183;DHT22;2105;52.300;9.182;2022-09-04T16:03:48;26.90;1.00
4183;DHT22;2105;52.300;9.182;2022-09-04T16:06:19;26.80;1.00
4183;DHT22;2105;52.300;9.182;2022-09-04T16:08:51;26.70;1.00
4183;DHT22;2105;52.300;9.182;2022-09-04T16:11:23;26.60;1.00
4183;DHT22;2105;52.300;9.182;2022-09-04T16:13:56;26.50;1.00
4183;DHT22;2105;52.300;9.182;2022-09-04T16:16:27;26.40;1.00
4183;DHT22;2105;52.300;9.182;2022-09-04T16:19:02;26.30;1.00
4183;DHT22;2105;52.300;9.182;2022-09-04T16:21:40;26.30;1.00
4183;DHT22;2105;52.300;9.182;2022-09-04T16:24:13;26.20;1.00
4183;DHT22;2105;52.300;9.182;2022-09-04T16:26:45;26.20;1.00
4183;DHT22;2105;52.300;9.182;2022-09-04T16:29:29;26.20;1.00
4183;DHT22;2105;52.300;9.182;2022-09-04T16:32:02;26.20;1.00
4183;DHT22;2105;52.300;9.182;2022-09-04T16:34:33;26.10;1.00
4183;DHT22;2105;52.300;9.182;2022-09-04T16:37:08;26.10;1.00
4183;DHT22;2105;52.300;9.182;2022-09-04T16:42:28;25.90;1.00
4183;DHT22;2105;52.300;9.182;2022-09-04T16:45:02;25.80;1.00
4183;DHT22;2105;52.300;9.182;2022-09-04T16:47:32;25.70;1.00
4183;DHT22;2105;52.300;9.182;2022-09-04T16:50:10;25.60;1.00
4183;DHT22;2105;52.300;9.182;2022-09-04T16:52:56;25.50;1.00
4183;DHT22;2105;52.300;9.182;2022-09-04T16:55:25;25.40;1.00
4183;DHT22;2105;52.300;9.182;2022-09-04T16:58:04;25.40;1.00
4183;DHT22;2105;52.300;9.182;2022-09-04T17:00:52;25.30;1.00
4183;DHT22;2105;52.300;9.182;2022-09-04T17:03:24;25.20;1.00
4183;DHT22;2105;52.300;9.182;2022-09-04T17:05:55;25.20;1.00
4183;DHT22;2105;52.300;9.182;2022-09-04T17:08:30;25.10;1.00
4183;DHT22;2105;52.300;9.182;2022-09-04T17:11:03;25.00;1.00
4183;DHT22;2105;52.300;9.182;2022-09-04T17:13:43;25.00;1.00
4183;DHT22;2105;52.300;9.182;2022-09-04T17:16:15;24.90;1.00
4183;DHT22;2105;52.300;9.182;2022-09-04T17:18:45;24.80;1.00
4183;DHT22;2105;52.300;9.182;2022-09-04T17:21:18;24.80;1.00
4183;DHT22;2105;52.300;9.182;2022-09-04T17:24:04;24.70;1.00
4183;DHT22;2105;52.300;9.182;2022-09-04T17:26:35;24.60;1.00
4183;DHT22;2105;52.300;9.182;2022-09-04T17:29:07;24.50;1.00
4183;DHT22;2105;52.300;9.182;2022-09-04T17:31:41;24.40;1.00
4183;DHT22;2105;52.300;9.182;2022-09-04T17:34:15;24.40;1.00
4183;DHT22;2105;52.300;9.182;2022-09-04T17:36:48;24.30;1.00
4183;DHT22;2105;52.300;9.182;2022-09-04T17:41:59;24.20;1.00
4183;DHT22;2105;52.300;9.182;2022-09-04T17:44:36;24.10;1.00
4183;DHT22;2105;52.300;9.182;2022-09-04T17:47:19;24.00;1.00
4183;DHT22;2105;52.300;9.182;2022-09-04T17:49:52;23.80;1.00
4183;DHT22;2105;52.300;9.182;2022-09-04T17:52:22;23.80;1.00
4183;DHT22;2105;52.300;9.182;2022-09-04T17:54:51;23.70;1.00
4183;DHT22;2105;52.300;9.182;2022-09-04T17:57:24;23.60;1.00
4183;DHT22;2105;52.300;9.182;2022-09-04T18:00:00;23.50;1.00
4183;DHT22;2105;52.300;9.182;2022-09-04T18:02:36;23.40;1.00
4183;DHT22;2105;52.300;9.182;2022-09-04T18:05:12;23.30;1.00
4183;DHT22;2105;52.300;9.182;2022-09-04T18:07:43;23.10;1.00
4183;DHT22;2105;52.300;9.182;2022-09-04T18:10:19;22.90;1.00
4183;DHT22;2105;52.300;9.182;2022-09-04T18:12:51;22.80;1.00
4183;DHT22;2105;52.300;9.182;2022-09-04T18:15:28;22.80;1.00
4183;DHT22;2105;52.300;9.182;2022-09-04T18:18:06;22.70;1.00
4183;DHT22;2105;52.300;9.182;2022-09-04T18:20:37;22.40;1.00
4183;DHT22;2105;52.300;9.182;2022-09-04T18:23:18;22.40;1.00
4183;DHT22;2105;52.300;9.182;2022-09-04T18:25:48;22.30;1.00
4183;DHT22;2105;52.300;9.182;2022-09-04T18:28:22;22.30;1.00
4183;DHT22;2105;52.300;9.182;2022-09-04T18:31:00;22.20;1.00
4183;DHT22;2105;52.300;9.182;2022-09-04T18:33:38;22.10;1.00
4183;DHT22;2105;52.300;9.182;2022-09-04T18:36:12;22.00;1.00
4183;DHT22;2105;52.300;9.182;2022-09-04T18:38:45;22.00;1.00
4183;DHT22;2105;52.300;9.182;2022-09-04T18:41:21;21.90;1.00
4183;DHT22;2105;52.300;9.182;2022-09-04T18:43:54;21.90;1.00
4183;DHT22;2105;52.300;9.182;2022-09-04T18:46:21;21.90;1.00
4183;DHT22;2105;52.300;9.182;2022-09-04T18:48:58;21.90;1.00
4183;DHT22;2105;52.300;9.182;2022-09-04T18:51:29;21.80;1.00
4183;DHT22;2105;52.300;9.182;2022-09-04T18:53:59;21.90;1.00